sensor_id;sensor_type;location;lat;lon;timestamp;P1;durP1;ratioP1;P2;durP2;ratioP2
15194;SDS011;7698;42.478;23.756;2023-02-15T00:00:14;32.00;;;25.63;;
15194;SDS011;7698;42.478;23.756;2023-02-15T00:02:41;30.73;;;24.08;;
15194;SDS011;7698;42.478;23.756;2023-02-15T00:05:08;30.20;;;24.88;;
15194;SDS011;7698;42.478;23.756;2023-02-15T00:07:35;27.63;;;22.20;;
15194;SDS011;7698;42.478;23.756;2023-02-15T00:10:02;32.20;;;25.52;;
15194;SDS011;7698;42.478;23.756;2023-02-15T00:12:30;31.33;;;25.17;;
15194;SDS011;7698;42.478;23.756;2023-02-15T00:14:57;31.10;;;23.85;;
15194;SDS011;7698;42.478;23.756;2023-02-15T00:17:23;31.52;;;23.77;;
15194;SDS011;7698;42.478;23.756;2023-02-15T00:19:53;28.00;;;22.00;;
15194;SDS011;7698;42.478;23.756;2023-02-15T00:22:20;26.98;;;21.52;;
15194;SDS011;7698;42.478;23.756;2023-02-15T00:24:47;31.08;;;23.98;;
15194;SDS011;7698;42.478;23.756;2023-02-15T00:27:15;30.42;;;22.80;;
15194;SDS011;7698;42.478;23.756;2023-02-15T00:29:43;30.02;;;23.02;;
15194;SDS011;7698;42.478;23.756;2023-02-15T00:32:10;30.27;;;24.17;;
15194;SDS011;7698;42.478;23.756;2023-02-15T00:34:36;26.83;;;22.17;;
15194;SDS011;7698;42.478;23.756;2023-02-15T00:37:03;28.67;;;22.93;;
15194;SDS011;7698;42.478;23.756;2023-02-15T00:39:30;25.58;;;20.67;;
15194;SDS011;7698;42.478;23.756;2023-02-15T00:41:56;29.65;;;22.75;;
15194;SDS011;7698;42.478;23.756;2023-02-15T00:44:23;30.47;;;23.30;;
15194;SDS011;7698;42.478;23.756;2023-02-15T00:46:51;27.70;;;21.52;;
15194;SDS011;7698;42.478;23.756;2023-02-15T00:49:18;31.40;;;23.90;;
15194;SDS011;7698;42.478;23.756;2023-02-15T00:51:45;30.63;;;23.53;;
15194;SDS011;7698;42.478;23.756;2023-02-15T00:54:12;27.58;;;22.35;;
15194;SDS011;7698;42.478;23.756;2023-02-15T00:56:38;29.35;;;23.50;;
15194;SDS011;7698;42.478;23.756;2023-02-15T00:59:05;29.55;;;23.02;;
15194;SDS011;7698;42.478;23.756;2023-02-15T01:01:32;27.83;;;22.55;;
15194;SDS011;7698;42.478;23.756;2023-02-15T01:04:00;29.83;;;23.35;;
15194;SDS011;7698;42.478;23.756;2023-02-15T01:06:28;28.67;;;23.10;;
15194;SDS011;7698;42.478;23.756;2023-02-15T01:08:54;30.40;;;23.20;;
15194;SDS011;7698;42.478;23.756;2023-02-15T01:11:22;25.63;;;20.58;;
15194;SDS011;7698;42.478;23.756;2023-02-15T01:13:50;28.38;;;22.67;;
15194;SDS011;7698;42.478;23.756;2023-02-15T01:16:18;26.73;;;22.17;;
15194;SDS011;7698;42.478;23.756;2023-02-15T01:18:46;25.23;;;21.50;;
15194;SDS011;7698;42.478;23.756;2023-02-15T01:21:15;30.20;;;23.00;;
15194;SDS011;7698;42.478;23.756;2023-02-15T01:23:44;25.73;;;20.90;;
15194;SDS011;7698;42.478;23.756;2023-02-15T01:26:11;24.08;;;19.27;;
15194;SDS011;7698;42.478;23.756;2023-02-15T01:28:37;26.38;;;22.15;;
15194;SDS011;7698;42.478;23.756;2023-02-15T01:31:05;24.50;;;20.00;;
15194;SDS011;7698;42.478;23.756;2023-02-15T01:33:33;26.27;;;19.80;;
15194;SDS011;7698;42.478;23.756;2023-02-15T01:36:01;26.33;;;20.95;;
15194;SDS011;7698;42.478;23.756;2023-02-15T01:38:29;26.50;;;21.52;;
15194;SDS011;7698;42.478;23.756;2023-02-15T01:40:56;27.83;;;22.55;;
15194;SDS011;7698;42.478;23.756;2023-02-15T01:43:44;26.85;;;21.70;;
15194;SDS011;7698;42.478;23.756;2023-02-15T01:46:13;22.33;;;18.38;;
15194;SDS011;7698;42.478;23.756;2023-02-15T01:48:43;27.65;;;22.27;;
15194;SDS011;7698;42.478;23.756;2023-02-15T01:51:13;25.70;;;21.45;;
15194;SDS011;7698;42.478;23.756;2023-02-15T01:53:46;26.42;;;22.48;;
15194;SDS011;7698;42.478;23.756;2023-02-15T01:56:17;28.63;;;23.67;;
15194;SDS011;7698;42.478;23.756;2023-02-15T01:58:46;25.48;;;21.60;;
15194;SDS011;7698;42.478;23.756;2023-02-15T02:01:14;25.48;;;20.15;;
15194;SDS011;7698;42.478;23.756;2023-02-15T02:03:45;26.17;;;21.40;;
15194;SDS011;7698;42.478;23.756;2023-02-15T02:06:19;26.33;;;19.55;;
15194;SDS011;7698;42.478;23.756;2023-02-15T02:08:48;26.05;;;21.08;;
15194;SDS011;7698;42.478;23.756;2023-02-15T02:11:15;26.13;;;21.45;;
15194;SDS011;7698;42.478;23.756;2023-02-15T02:13:42;29.35;;;22.60;;
15194;SDS011;7698;42.478;23.756;2023-02-15T02:16:11;28.15;;;23.38;;
15194;SDS011;7698;42.478;23.756;2023-02-15T02:18:47;28.70;;;22.00;;
15194;SDS011;7698;42.478;23.756;2023-02-15T02:24:42;26.25;;;21.45;;
15194;SDS011;7698;42.478;23.756;2023-02-15T02:27:24;26.20;;;21.40;;
15194;SDS011;7698;42.478;23.756;2023-02-15T02:36:08;24.13;;;19.15;;
15194;SDS011;7698;42.478;23.756;2023-02-15T02:38:48;22.92;;;18.20;;
15194;SDS011;7698;42.478;23.756;2023-02-15T02:41:28;21.13;;;17.25;;
15194;SDS011;7698;42.478;23.756;2023-02-15T02:44:00;23.88;;;19.73;;
15194;SDS011;7698;42.478;23.756;2023-02-15T02:46:33;26.00;;;20.50;;
15194;SDS011;7698;42.478;23.756;2023-02-15T02:49:05;22.35;;;17.67;;
15194;SDS011;7698;42.478;23.756;2023-02-15T02:51:33;26.37;;;21.03;;
15194;SDS011;7698;42.478;23.756;2023-02-15T02:54:00;23.95;;;20.15;;
15194;SDS011;7698;42.478;23.756;2023-02-15T02:56:33;25.10;;;21.50;;
15194;SDS011;7698;42.478;23.756;2023-02-15T02:59:04;23.45;;;18.25;;
15194;SDS011;7698;42.478;23.756;2023-02-15T03:01:36;25.53;;;20.87;;
15194;SDS011;7698;42.478;23.756;2023-02-15T03:04:06;22.23;;;19.50;;
15194;SDS011;7698;42.478;23.756;2023-02-15T03:06:38;20.35;;;17.05;;
15194;SDS011;7698;42.478;23.756;2023-02-15T03:09:12;26.35;;;20.90;;
15194;SDS011;7698;42.478;23.756;2023-02-15T03:11:45;24.30;;;19.45;;
15194;SDS011;7698;42.478;23.756;2023-02-15T03:14:13;23.13;;;19.90;;
15194;SDS011;7698;42.478;23.756;2023-02-15T03:16:42;22.80;;;20.15;;
15194;SDS011;7698;42.478;23.756;2023-02-15T03:19:12;23.17;;;19.40;;
15194;SDS011;7698;42.478;23.756;2023-02-15T03:21:45;26.45;;;21.33;;
15194;SDS011;7698;42.478;23.756;2023-02-15T03:24:23;24.27;;;21.50;;
15194;SDS011;7698;42.478;23.756;2023-02-15T03:26:52;22.23;;;18.30;;
15194;SDS011;7698;42.478;23.756;2023-02-15T03:29:22;24.08;;;19.58;;
15194;SDS011;7698;42.478;23.756;2023-02-15T03:31:53;21.80;;;18.83;;
15194;SDS011;7698;42.478;23.756;2023-02-15T03:34:24;23.20;;;19.08;;
15194;SDS011;7698;42.478;23.756;2023-02-15T03:36:55;24.58;;;18.98;;
15194;SDS011;7698;42.478;23.756;2023-02-15T03:39:27;19.67;;;16.87;;
15194;SDS011;7698;42.478;23.756;2023-02-15T03:42:00;21.80;;;18.33;;
15194;SDS011;7698;42.478;23.756;2023-02-15T03:44:38;21.73;;;18.30;;
15194;SDS011;7698;42.478;23.756;2023-02-15T03:47:13;22.17;;;18.30;;
15194;SDS011;7698;42.478;23.756;2023-02-15T03:49:44;24.80;;;18.33;;
15194;SDS011;7698;42.478;23.756;2023-02-15T03:52:18;21.77;;;18.35;;
15194;SDS011;7698;42.478;23.756;2023-02-15T03:54:45;21.83;;;17.23;;
15194;SDS011;7698;42.478;23.756;2023-02-15T03:57:14;23.65;;;19.48;;
15194;SDS011;7698;42.478;23.756;2023-02-15T04:00:03;19.33;;;16.67;;
15194;SDS011;7698;42.478;23.756;2023-02-15T04:02:53;20.25;;;17.55;;
15194;SDS011;7698;42.478;23.756;2023-02-15T04:05:29;21.42;;;18.98;;
15194;SDS011;7698;42.478;23.756;2023-02-15T04:07:58;21.00;;;17.60;;
15194;SDS011;7698;42.478;23.756;2023-02-15T04:10:24;23.70;;;19.50;;
15194;SDS011;7698;42.478;23.756;2023-02-15T04:13:08;21.67;;;18.23;;
15194;SDS011;7698;42.478;23.756;2023-02-15T04:15:35;21.25;;;17.45;;
15194;SDS011;7698;42.478;23.756;2023-02-15T04:18:19;20.92;;;17.05;;
15194;SDS011;7698;42.478;23.756;2023-02-15T04:20:46;20.43;;;16.93;;
15194;SDS011;7698;42.478;23.756;2023-02-15T04:23:32;18.45;;;15.57;;
15194;SDS011;7698;42.478;23.756;2023-02-15T04:26:16;19.80;;;16.70;;
15194;SDS011;7698;42.478;23.756;2023-02-15T04:28:43;21.67;;;19.13;;
15194;SDS011;7698;42.478;23.756;2023-02-15T04:31:10;19.35;;;17.15;;
15194;SDS011;7698;42.478;23.756;2023-02-15T04:33:36;22.10;;;17.67;;
15194;SDS011;7698;42.478;23.756;2023-02-15T04:36:03;18.67;;;16.55;;
15194;SDS011;7698;42.478;23.756;2023-02-15T04:38:32;21.00;;;16.63;;
15194;SDS011;7698;42.478;23.756;2023-02-15T04:40:59;20.77;;;16.53;;
15194;SDS011;7698;42.478;23.756;2023-02-15T04:43:26;21.63;;;17.42;;
15194;SDS011;7698;42.478;23.756;2023-02-15T04:45:53;21.65;;;17.17;;
15194;SDS011;7698;42.478;23.756;2023-02-15T04:48:19;22.17;;;18.08;;
15194;SDS011;7698;42.478;23.756;2023-02-15T04:50:46;20.13;;;16.95;;
15194;SDS011;7698;42.478;23.756;2023-02-15T04:53:13;18.83;;;15.52;;
15194;SDS011;7698;42.478;23.756;2023-02-15T04:55:43;21.38;;;17.55;;
15194;SDS011;7698;42.478;23.756;2023-02-15T04:58:11;18.13;;;15.35;;
15194;SDS011;7698;42.478;23.756;2023-02-15T05:00:38;19.92;;;16.05;;
15194;SDS011;7698;42.478;23.756;2023-02-15T05:03:05;18.23;;;15.38;;
15194;SDS011;7698;42.478;23.756;2023-02-15T05:05:31;19.85;;;17.58;;
15194;SDS011;7698;42.478;23.756;2023-02-15T05:07:58;20.60;;;17.58;;
15194;SDS011;7698;42.478;23.756;2023-02-15T05:10:25;18.88;;;15.65;;
15194;SDS011;7698;42.478;23.756;2023-02-15T05:12:53;23.37;;;18.23;;
15194;SDS011;7698;42.478;23.756;2023-02-15T05:15:20;18.27;;;15.98;;
15194;SDS011;7698;42.478;23.756;2023-02-15T05:17:47;17.65;;;15.20;;
15194;SDS011;7698;42.478;23.756;2023-02-15T05:20:14;20.13;;;15.27;;
15194;SDS011;7698;42.478;23.756;2023-02-15T05:22:40;19.80;;;16.95;;
15194;SDS011;7698;42.478;23.756;2023-02-15T05:25:08;20.23;;;16.90;;
15194;SDS011;7698;42.478;23.756;2023-02-15T05:27:53;20.70;;;17.60;;
15194;SDS011;7698;42.478;23.756;2023-02-15T05:30:37;21.55;;;18.13;;
15194;SDS011;7698;42.478;23.756;2023-02-15T05:33:05;16.88;;;14.70;;
15194;SDS011;7698;42.478;23.756;2023-02-15T05:35:33;18.50;;;15.90;;
15194;SDS011;7698;42.478;23.756;2023-02-15T05:38:00;19.40;;;15.38;;
15194;SDS011;7698;42.478;23.756;2023-02-15T05:40:27;18.63;;;16.30;;
15194;SDS011;7698;42.478;23.756;2023-02-15T05:42:55;19.02;;;14.80;;
15194;SDS011;7698;42.478;23.756;2023-02-15T05:45:22;21.17;;;16.70;;
15194;SDS011;7698;42.478;23.756;2023-02-15T05:47:49;19.65;;;16.00;;
15194;SDS011;7698;42.478;23.756;2023-02-15T05:50:16;17.00;;;14.50;;
15194;SDS011;7698;42.478;23.756;2023-02-15T05:52:43;23.65;;;18.38;;
15194;SDS011;7698;42.478;23.756;2023-02-15T05:55:10;19.07;;;15.60;;
15194;SDS011;7698;42.478;23.756;2023-02-15T05:57:37;18.42;;;15.82;;
15194;SDS011;7698;42.478;23.756;2023-02-15T06:00:06;20.92;;;17.55;;
15194;SDS011;7698;42.478;23.756;2023-02-15T06:02:35;20.65;;;17.25;;
15194;SDS011;7698;42.478;23.756;2023-02-15T06:05:02;17.92;;;14.88;;
15194;SDS011;7698;42.478;23.756;2023-02-15T06:07:29;20.25;;;16.27;;
15194;SDS011;7698;42.478;23.756;2023-02-15T06:09:56;17.83;;;13.88;;
15194;SDS011;7698;42.478;23.756;2023-02-15T06:12:23;19.23;;;15.75;;
15194;SDS011;7698;42.478;23.756;2023-02-15T06:14:50;18.05;;;15.00;;
15194;SDS011;7698;42.478;23.756;2023-02-15T06:17:18;19.17;;;14.70;;
15194;SDS011;7698;42.478;23.756;2023-02-15T06:19:46;16.58;;;14.32;;
15194;SDS011;7698;42.478;23.756;2023-02-15T06:22:13;18.15;;;14.90;;
15194;SDS011;7698;42.478;23.756;2023-02-15T06:24:40;22.23;;;18.10;;
15194;SDS011;7698;42.478;23.756;2023-02-15T06:27:08;17.10;;;13.85;;
15194;SDS011;7698;42.478;23.756;2023-02-15T06:29:35;20.67;;;17.27;;
15194;SDS011;7698;42.478;23.756;2023-02-15T06:32:02;19.42;;;16.27;;
15194;SDS011;7698;42.478;23.756;2023-02-15T06:34:30;19.65;;;16.13;;
15194;SDS011;7698;42.478;23.756;2023-02-15T06:36:57;20.27;;;17.52;;
15194;SDS011;7698;42.478;23.756;2023-02-15T06:39:24;17.00;;;14.30;;
15194;SDS011;7698;42.478;23.756;2023-02-15T06:41:51;19.27;;;16.35;;
15194;SDS011;7698;42.478;23.756;2023-02-15T06:44:18;16.35;;;13.68;;
15194;SDS011;7698;42.478;23.756;2023-02-15T06:46:45;16.83;;;15.00;;
15194;SDS011;7698;42.478;23.756;2023-02-15T06:49:11;17.88;;;15.60;;
15194;SDS011;7698;42.478;23.756;2023-02-15T06:51:40;17.95;;;15.35;;
15194;SDS011;7698;42.478;23.756;2023-02-15T06:54:06;15.82;;;14.20;;
15194;SDS011;7698;42.478;23.756;2023-02-15T06:56:33;17.60;;;15.13;;
15194;SDS011;7698;42.478;23.756;2023-02-15T06:59:00;18.40;;;14.93;;
15194;SDS011;7698;42.478;23.756;2023-02-15T07:01:27;16.35;;;14.60;;
15194;SDS011;7698;42.478;23.756;2023-02-15T07:03:54;17.95;;;15.90;;
15194;SDS011;7698;42.478;23.756;2023-02-15T07:06:20;16.05;;;14.35;;
15194;SDS011;7698;42.478;23.756;2023-02-15T07:08:49;16.15;;;14.45;;
15194;SDS011;7698;42.478;23.756;2023-02-15T07:11:15;15.63;;;14.00;;
15194;SDS011;7698;42.478;23.756;2023-02-15T07:13:59;15.82;;;13.40;;
15194;SDS011;7698;42.478;23.756;2023-02-15T07:16:26;17.27;;;15.45;;
15194;SDS011;7698;42.478;23.756;2023-02-15T07:18:53;18.45;;;16.33;;
15194;SDS011;7698;42.478;23.756;2023-02-15T07:21:20;20.17;;;17.77;;
15194;SDS011;7698;42.478;23.756;2023-02-15T07:23:48;20.65;;;18.27;;
15194;SDS011;7698;42.478;23.756;2023-02-15T07:26:15;18.30;;;15.45;;
15194;SDS011;7698;42.478;23.756;2023-02-15T07:28:42;18.30;;;16.38;;
15194;SDS011;7698;42.478;23.756;2023-02-15T07:31:09;20.90;;;16.75;;
15194;SDS011;7698;42.478;23.756;2023-02-15T07:33:36;17.52;;;15.35;;
15194;SDS011;7698;42.478;23.756;2023-02-15T07:36:03;18.55;;;16.15;;
15194;SDS011;7698;42.478;23.756;2023-02-15T07:38:31;18.73;;;16.73;;
15194;SDS011;7698;42.478;23.756;2023-02-15T07:41:01;19.17;;;16.63;;
15194;SDS011;7698;42.478;23.756;2023-02-15T07:43:29;18.92;;;16.90;;
15194;SDS011;7698;42.478;23.756;2023-02-15T07:45:58;16.38;;;14.38;;
15194;SDS011;7698;42.478;23.756;2023-02-15T07:48:25;19.38;;;16.58;;
15194;SDS011;7698;42.478;23.756;2023-02-15T07:50:52;19.05;;;17.02;;
15194;SDS011;7698;42.478;23.756;2023-02-15T07:53:18;16.83;;;14.48;;
15194;SDS011;7698;42.478;23.756;2023-02-15T07:55:45;15.75;;;13.57;;
15194;SDS011;7698;42.478;23.756;2023-02-15T07:58:13;17.10;;;15.30;;
15194;SDS011;7698;42.478;23.756;2023-02-15T08:00:40;16.55;;;14.68;;
15194;SDS011;7698;42.478;23.756;2023-02-15T08:03:35;16.88;;;14.73;;
15194;SDS011;7698;42.478;23.756;2023-02-15T08:06:02;16.75;;;14.32;;
15194;SDS011;7698;42.478;23.756;2023-02-15T08:08:29;17.08;;;15.10;;
15194;SDS011;7698;42.478;23.756;2023-02-15T08:10:59;15.27;;;12.90;;
15194;SDS011;7698;42.478;23.756;2023-02-15T08:13:45;15.38;;;13.73;;
15194;SDS011;7698;42.478;23.756;2023-02-15T08:16:24;14.23;;;12.70;;
15194;SDS011;7698;42.478;23.756;2023-02-15T08:18:53;14.65;;;12.77;;
15194;SDS011;7698;42.478;23.756;2023-02-15T08:21:21;15.70;;;14.00;;
15194;SDS011;7698;42.478;23.756;2023-02-15T08:23:48;15.15;;;13.27;;
15194;SDS011;7698;42.478;23.756;2023-02-15T08:26:15;17.10;;;14.38;;
15194;SDS011;7698;42.478;23.756;2023-02-15T08:28:42;17.38;;;14.77;;
15194;SDS011;7698;42.478;23.756;2023-02-15T08:31:11;16.52;;;14.75;;
15194;SDS011;7698;42.478;23.756;2023-02-15T08:33:40;16.42;;;14.25;;
15194;SDS011;7698;42.478;23.756;2023-02-15T08:36:11;16.60;;;14.88;;
15194;SDS011;7698;42.478;23.756;2023-02-15T08:38:38;18.45;;;14.85;;
15194;SDS011;7698;42.478;23.756;2023-02-15T08:41:09;17.48;;;15.48;;
15194;SDS011;7698;42.478;23.756;2023-02-15T08:43:37;18.08;;;14.13;;
15194;SDS011;7698;42.478;23.756;2023-02-15T08:46:04;18.58;;;16.58;;
15194;SDS011;7698;42.478;23.756;2023-02-15T08:48:32;16.60;;;14.90;;
15194;SDS011;7698;42.478;23.756;2023-02-15T08:50:58;17.83;;;15.25;;
15194;SDS011;7698;42.478;23.756;2023-02-15T08:53:32;18.20;;;15.73;;
15194;SDS011;7698;42.478;23.756;2023-02-15T08:55:59;18.23;;;16.15;;
15194;SDS011;7698;42.478;23.756;2023-02-15T08:58:26;18.63;;;16.73;;
15194;SDS011;7698;42.478;23.756;2023-02-15T09:00:52;17.60;;;15.60;;
15194;SDS011;7698;42.478;23.756;2023-02-15T09:03:19;14.93;;;13.43;;
15194;SDS011;7698;42.478;23.756;2023-02-15T09:05:46;19.33;;;16.83;;
15194;SDS011;7698;42.478;23.756;2023-02-15T09:08:13;17.60;;;15.82;;
15194;SDS011;7698;42.478;23.756;2023-02-15T09:10:41;17.00;;;14.82;;
15194;SDS011;7698;42.478;23.756;2023-02-15T09:13:08;17.55;;;15.75;;
15194;SDS011;7698;42.478;23.756;2023-02-15T09:15:34;17.80;;;15.52;;
15194;SDS011;7698;42.478;23.756;2023-02-15T09:18:01;18.80;;;16.15;;
15194;SDS011;7698;42.478;23.756;2023-02-15T09:20:31;17.95;;;16.15;;
15194;SDS011;7698;42.478;23.756;2023-02-15T09:23:01;17.52;;;15.73;;
15194;SDS011;7698;42.478;23.756;2023-02-15T09:25:27;16.58;;;14.90;;
15194;SDS011;7698;42.478;23.756;2023-02-15T09:27:56;16.42;;;14.82;;
15194;SDS011;7698;42.478;23.756;2023-02-15T09:30:22;16.52;;;14.93;;
15194;SDS011;7698;42.478;23.756;2023-02-15T09:32:49;17.60;;;15.23;;
15194;SDS011;7698;42.478;23.756;2023-02-15T09:35:16;17.15;;;15.45;;
15194;SDS011;7698;42.478;23.756;2023-02-15T09:37:43;16.15;;;14.55;;
15194;SDS011;7698;42.478;23.756;2023-02-15T09:40:11;17.27;;;15.57;;
15194;SDS011;7698;42.478;23.756;2023-02-15T09:45:46;14.43;;;13.02;;
15194;SDS011;7698;42.478;23.756;2023-02-15T09:48:31;14.45;;;12.95;;
15194;SDS011;7698;42.478;23.756;2023-02-15T09:51:13;13.75;;;12.43;;
15194;SDS011;7698;42.478;23.756;2023-02-15T09:54:00;13.40;;;12.10;;
15194;SDS011;7698;42.478;23.756;2023-02-15T09:56:37;15.13;;;13.70;;
15194;SDS011;7698;42.478;23.756;2023-02-15T09:59:14;13.55;;;12.25;;
15194;SDS011;7698;42.478;23.756;2023-02-15T10:01:51;15.85;;;14.35;;
15194;SDS011;7698;42.478;23.756;2023-02-15T10:04:34;16.02;;;14.32;;
15194;SDS011;7698;42.478;23.756;2023-02-15T10:07:18;14.52;;;13.13;;
15194;SDS011;7698;42.478;23.756;2023-02-15T10:09:56;16.42;;;14.68;;
15194;SDS011;7698;42.478;23.756;2023-02-15T10:12:39;15.35;;;13.95;;
15194;SDS011;7698;42.478;23.756;2023-02-15T10:15:22;15.27;;;13.77;;
15194;SDS011;7698;42.478;23.756;2023-02-15T10:18:04;14.43;;;12.93;;
15194;SDS011;7698;42.478;23.756;2023-02-15T10:20:49;15.50;;;13.82;;
15194;SDS011;7698;42.478;23.756;2023-02-15T10:23:30;13.48;;;12.18;;
15194;SDS011;7698;42.478;23.756;2023-02-15T10:26:17;13.35;;;11.60;;
15194;SDS011;7698;42.478;23.756;2023-02-15T10:28:46;12.77;;;11.68;;
15194;SDS011;7698;42.478;23.756;2023-02-15T10:31:24;12.95;;;11.75;;
15194;SDS011;7698;42.478;23.756;2023-02-15T10:33:56;11.70;;;10.63;;
15194;SDS011;7698;42.478;23.756;2023-02-15T10:36:38;12.68;;;11.48;;
15194;SDS011;7698;42.478;23.756;2023-02-15T10:39:18;13.13;;;11.93;;
15194;SDS011;7698;42.478;23.756;2023-02-15T10:41:53;13.88;;;12.45;;
15194;SDS011;7698;42.478;23.756;2023-02-15T10:44:34;12.68;;;11.40;;
15194;SDS011;7698;42.478;23.756;2023-02-15T10:47:20;13.85;;;12.48;;
15194;SDS011;7698;42.478;23.756;2023-02-15T10:50:02;12.00;;;10.90;;
15194;SDS011;7698;42.478;23.756;2023-02-15T10:52:41;13.07;;;11.88;;
15194;SDS011;7698;42.478;23.756;2023-02-15T10:55:23;12.80;;;11.52;;
15194;SDS011;7698;42.478;23.756;2023-02-15T10:58:02;12.95;;;11.73;;
15194;SDS011;7698;42.478;23.756;2023-02-15T11:00:39;14.05;;;12.70;;
15194;SDS011;7698;42.478;23.756;2023-02-15T11:03:16;13.63;;;12.38;;
15194;SDS011;7698;42.478;23.756;2023-02-15T11:05:56;12.85;;;11.65;;
15194;SDS011;7698;42.478;23.756;2023-02-15T11:08:29;13.13;;;11.93;;
15194;SDS011;7698;42.478;23.756;2023-02-15T11:11:00;13.73;;;12.52;;
15194;SDS011;7698;42.478;23.756;2023-02-15T11:13:29;15.35;;;13.88;;
15194;SDS011;7698;42.478;23.756;2023-02-15T11:16:00;14.40;;;13.00;;
15194;SDS011;7698;42.478;23.756;2023-02-15T11:18:32;14.65;;;13.25;;
15194;SDS011;7698;42.478;23.756;2023-02-15T11:21:03;12.10;;;10.90;;
15194;SDS011;7698;42.478;23.756;2023-02-15T11:23:33;12.82;;;11.63;;
15194;SDS011;7698;42.478;23.756;2023-02-15T11:26:10;12.00;;;10.90;;
15194;SDS011;7698;42.478;23.756;2023-02-15T11:28:42;14.20;;;12.85;;
15194;SDS011;7698;42.478;23.756;2023-02-15T11:31:15;14.23;;;12.93;;
15194;SDS011;7698;42.478;23.756;2023-02-15T11:33:47;14.05;;;12.75;;
15194;SDS011;7698;42.478;23.756;2023-02-15T11:36:18;13.00;;;11.85;;
15194;SDS011;7698;42.478;23.756;2023-02-15T11:38:50;13.38;;;12.07;;
15194;SDS011;7698;42.478;23.756;2023-02-15T11:41:23;14.27;;;12.98;;
15194;SDS011;7698;42.478;23.756;2023-02-15T11:43:54;14.18;;;12.88;;
15194;SDS011;7698;42.478;23.756;2023-02-15T11:46:27;12.93;;;11.75;;
15194;SDS011;7698;42.478;23.756;2023-02-15T11:48:55;13.48;;;12.27;;
15194;SDS011;7698;42.478;23.756;2023-02-15T11:51:23;13.10;;;11.88;;
15194;SDS011;7698;42.478;23.756;2023-02-15T11:53:52;14.18;;;12.95;;
15194;SDS011;7698;42.478;23.756;2023-02-15T11:56:20;12.93;;;11.75;;
15194;SDS011;7698;42.478;23.756;2023-02-15T11:58:49;14.57;;;13.27;;
15194;SDS011;7698;42.478;23.756;2023-02-15T12:01:21;14.38;;;13.07;;
15194;SDS011;7698;42.478;23.756;2023-02-15T12:03:57;15.63;;;14.18;;
15194;SDS011;7698;42.478;23.756;2023-02-15T12:06:28;16.92;;;15.13;;
15194;SDS011;7698;42.478;23.756;2023-02-15T12:08:59;14.15;;;12.75;;
15194;SDS011;7698;42.478;23.756;2023-02-15T12:11:31;13.68;;;12.27;;
15194;SDS011;7698;42.478;23.756;2023-02-15T12:14:03;12.48;;;11.27;;
15194;SDS011;7698;42.478;23.756;2023-02-15T12:16:32;13.18;;;11.98;;
15194;SDS011;7698;42.478;23.756;2023-02-15T12:19:12;13.13;;;11.95;;
15194;SDS011;7698;42.478;23.756;2023-02-15T12:21:57;11.52;;;10.52;;
15194;SDS011;7698;42.478;23.756;2023-02-15T12:24:26;12.63;;;11.45;;
15194;SDS011;7698;42.478;23.756;2023-02-15T12:26:56;12.60;;;11.00;;
15194;SDS011;7698;42.478;23.756;2023-02-15T12:29:27;11.98;;;10.88;;
15194;SDS011;7698;42.478;23.756;2023-02-15T12:31:57;15.00;;;13.45;;
15194;SDS011;7698;42.478;23.756;2023-02-15T12:34:26;12.43;;;11.32;;
15194;SDS011;7698;42.478;23.756;2023-02-15T12:36:57;12.30;;;11.15;;
15194;SDS011;7698;42.478;23.756;2023-02-15T12:39:33;12.57;;;11.38;;
15194;SDS011;7698;42.478;23.756;2023-02-15T12:42:02;12.40;;;11.20;;
15194;SDS011;7698;42.478;23.756;2023-02-15T12:44:32;12.40;;;11.35;;
15194;SDS011;7698;42.478;23.756;2023-02-15T12:47:01;13.23;;;11.93;;
15194;SDS011;7698;42.478;23.756;2023-02-15T12:49:32;12.50;;;11.40;;
15194;SDS011;7698;42.478;23.756;2023-02-15T12:52:00;12.55;;;11.48;;
15194;SDS011;7698;42.478;23.756;2023-02-15T12:54:29;12.82;;;11.73;;
15194;SDS011;7698;42.478;23.756;2023-02-15T12:57:25;12.75;;;11.55;;
15194;SDS011;7698;42.478;23.756;2023-02-15T12:59:54;13.98;;;12.75;;
15194;SDS011;7698;42.478;23.756;2023-02-15T13:02:26;13.65;;;12.35;;
15194;SDS011;7698;42.478;23.756;2023-02-15T13:04:57;12.90;;;11.80;;
15194;SDS011;7698;42.478;23.756;2023-02-15T13:07:34;14.20;;;12.95;;
15194;SDS011;7698;42.478;23.756;2023-02-15T13:10:00;15.10;;;13.70;;
15194;SDS011;7698;42.478;23.756;2023-02-15T13:12:28;13.80;;;12.50;;
15194;SDS011;7698;42.478;23.756;2023-02-15T13:14:58;13.32;;;12.10;;
15194;SDS011;7698;42.478;23.756;2023-02-15T13:17:28;14.23;;;12.95;;
15194;SDS011;7698;42.478;23.756;2023-02-15T13:20:02;13.05;;;11.93;;
15194;SDS011;7698;42.478;23.756;2023-02-15T13:22:35;12.55;;;11.35;;
15194;SDS011;7698;42.478;23.756;2023-02-15T13:25:10;14.05;;;12.63;;
15194;SDS011;7698;42.478;23.756;2023-02-15T13:27:41;16.38;;;14.80;;
15194;SDS011;7698;42.478;23.756;2023-02-15T13:32:54;15.30;;;13.93;;
15194;SDS011;7698;42.478;23.756;2023-02-15T13:35:25;17.08;;;14.48;;
15194;SDS011;7698;42.478;23.756;2023-02-15T13:38:04;15.13;;;13.52;;
15194;SDS011;7698;42.478;23.756;2023-02-15T13:40:40;13.32;;;12.13;;
15194;SDS011;7698;42.478;23.756;2023-02-15T13:43:16;14.75;;;13.27;;
15194;SDS011;7698;42.478;23.756;2023-02-15T13:45:54;13.15;;;11.95;;
15194;SDS011;7698;42.478;23.756;2023-02-15T13:48:28;14.20;;;12.90;;
15194;SDS011;7698;42.478;23.756;2023-02-15T13:51:07;14.25;;;12.82;;
15194;SDS011;7698;42.478;23.756;2023-02-15T13:53:48;13.20;;;11.90;;
15194;SDS011;7698;42.478;23.756;2023-02-15T13:56:38;14.05;;;12.75;;
15194;SDS011;7698;42.478;23.756;2023-02-15T14:02:23;16.75;;;15.15;;
15194;SDS011;7698;42.478;23.756;2023-02-15T14:05:29;15.82;;;14.30;;
15194;SDS011;7698;42.478;23.756;2023-02-15T14:08:13;17.80;;;15.98;;
15194;SDS011;7698;42.478;23.756;2023-02-15T14:10:54;16.38;;;14.77;;
15194;SDS011;7698;42.478;23.756;2023-02-15T14:13:31;17.92;;;16.20;;
15194;SDS011;7698;42.478;23.756;2023-02-15T14:16:13;17.27;;;15.68;;
15194;SDS011;7698;42.478;23.756;2023-02-15T14:18:48;17.40;;;15.77;;
15194;SDS011;7698;42.478;23.756;2023-02-15T14:21:21;17.45;;;15.85;;
15194;SDS011;7698;42.478;23.756;2023-02-15T14:23:59;18.23;;;16.33;;
15194;SDS011;7698;42.478;23.756;2023-02-15T14:26:43;16.95;;;15.30;;
15194;SDS011;7698;42.478;23.756;2023-02-15T14:29:18;16.60;;;14.90;;
15194;SDS011;7698;42.478;23.756;2023-02-15T14:31:53;14.85;;;13.40;;
15194;SDS011;7698;42.478;23.756;2023-02-15T14:34:24;15.65;;;14.05;;
15194;SDS011;7698;42.478;23.756;2023-02-15T14:36:56;16.70;;;15.10;;
15194;SDS011;7698;42.478;23.756;2023-02-15T14:39:28;18.48;;;16.50;;
15194;SDS011;7698;42.478;23.756;2023-02-15T14:42:21;16.00;;;14.35;;
15194;SDS011;7698;42.478;23.756;2023-02-15T14:44:53;14.93;;;13.43;;
15194;SDS011;7698;42.478;23.756;2023-02-15T14:47:28;14.90;;;13.50;;
15194;SDS011;7698;42.478;23.756;2023-02-15T14:50:11;15.68;;;14.18;;
15194;SDS011;7698;42.478;23.756;2023-02-15T14:53:14;18.77;;;16.85;;
15194;SDS011;7698;42.478;23.756;2023-02-15T14:55:43;18.08;;;16.17;;
15194;SDS011;7698;42.478;23.756;2023-02-15T14:58:10;16.83;;;15.20;;
15194;SDS011;7698;42.478;23.756;2023-02-15T15:00:39;17.33;;;14.80;;
15194;SDS011;7698;42.478;23.756;2023-02-15T15:03:11;18.05;;;16.20;;